Estación Meteorológica Peña el Pijo (Robertgarden) [ 05/26/19 18:43:47 CEST ]

Fecha Hora Presion(HPa) Temp (°C) Humedad % Rocio (°C) Viento ( m/s) Direccion Lluvia 1Hora(mm) Lluvia 24H(mm) LLuvia Total(mm)
2019-Jan-30 01:01:44 1001.300 6.9 75 2.8 1.5 WNW     167.31
2019-Jan-30 02:01:44 1000.700 6.5 76 2.6         167.31
2019-Jan-30 03:01:44 1000.700 6.4 72 1.7         167.31
2019-Jan-30 04:01:43 1000.900 6.1 72 1.4         167.31
2019-Jan-30 05:01:50 1000.400 5.9 71 1.1         167.31
2019-Jan-30 06:04:12 1000.000 5.8 70 0.8         167.31
2019-Jan-30 07:01:44 999.900 5.3 69 0.1         167.31
2019-Jan-30 08:01:47 999.900 5.1 70 0.1         167.31
2019-Jan-30 09:01:43 1001.000 4.8 70 -0.2         167.31
2019-Jan-30 10:01:40 1001.200 7.4 65 1.2         167.31
2019-Jan-30 11:01:44 1001.500 8.7 54 -0.1         167.31
2019-Jan-30 12:01:56 1001.800 8.6 54 -0.2 2.3 NNW     167.31
2019-Jan-30 13:01:35 1001.600 8.7 52 -0.7         167.31
2019-Jan-30 14:01:50 1001.000 9.3 49 -0.9 0.9 WNW     167.31
2019-Jan-30 15:01:57 1000.300 8.6 51 -1.0 1.5 NW     167.31
2019-Jan-30 16:01:35 1000.300 9.2 48 -1.3         167.31
2019-Jan-30 17:01:49 1000.200 8.2 52 -1.1 1.9 NW     167.31
2019-Jan-30 18:01:57 1000.000 6.4 59 -1.1 2.8 NW     167.31
2019-Jan-30 19:01:38 1000.000 5.9 64 -0.4         167.31
2019-Jan-30 20:01:38 1000.400 5.6 69 0.4         167.31
2019-Jan-30 21:01:43 1000.400 5.4 72 0.8         167.31
2019-Jan-30 22:01:41 999.500 5.3 75 1.2         167.31
2019-Jan-30 23:01:42 999.000 5.5 78 1.9         167.31

Temperatura Máxima:    Temperatura Mínima:
Presión Máxima:1001.800 Hpa    Presión Mínima:999.000 Hpa


Volver